Time;durP1;ratioP1;P1;durP2;ratioP2;P2;SDS_P1;SDS_P2;PMS_P1;PMS_P2;Temp;Humidity;BMP_temperature;BMP_pressure;BME280_temperature;BME280_humidity;BME280_pressure;Samples;Min_cycle;Max_cycle;Signal;HPM_P1;HPM_P2
2023/06/14 00:04:15;;;;;;;;;;;;;;;;;;;;;
2023/06/14 00:11:38;;;;;;;;;;;;;;;;;;;;;
2023/06/14 00:52:14;;;;;;;;;;;;;;;;;;;;;
2023/06/14 01:03:22;;;;;;;;;;;;;;;;;;;;;
2023/06/14 01:06:57;;;;;;;;;;;;;;;;;;;;;
2023/06/14 04:45:49;;;;;;;5.65;3.30;;;17.40;99.90;;;;;;4908083;29;20052;-78
2023/06/14 04:49:23;;;;;;;4.60;3.47;;;17.80;99.90;;;;;;4882020;29;20141;-78
2023/06/14 04:52:12;;;;;;;6.57;3.72;;;18.00;99.90;;;;;;4928613;23;20063;-75
2023/06/14 04:54:41;;;;;;;4.75;3.25;;;18.20;99.30;;;;;;4927105;29;20043;-75
2023/06/14 04:57:07;;;;;;;7.30;3.50;;;18.30;98.10;;;;;;4934230;29;20497;-75
2023/06/14 04:59:35;;;;;;;8.98;3.35;;;18.40;96.70;;;;;;4919452;29;20051;-75
2023/06/14 05:02:01;;;;;;;5.03;3.50;;;18.40;97.40;;;;;;4922518;29;20047;-75
2023/06/14 05:04:27;;;;;;;5.60;3.15;;;18.60;94.10;;;;;;4930679;29;20039;-75
2023/06/14 05:06:56;;;;;;;7.18;3.80;;;18.70;92.40;;;;;;4938407;29;20050;-75
2023/06/14 05:09:22;;;;;;;6.03;3.33;;;18.80;90.50;;;;;;4925433;29;20036;-76
2023/06/14 05:11:48;;;;;;;4.88;3.70;;;18.90;89.10;;;;;;4930233;29;20478;-76
2023/06/14 05:14:14;;;;;;;5.53;3.72;;;19.10;85.40;;;;;;4938352;29;20525;-75
2023/06/14 05:16:40;;;;;;;5.93;3.53;;;19.20;82.70;;;;;;4938278;29;20043;-75
2023/06/14 05:19:06;;;;;;;4.85;3.47;;;19.40;80.60;;;;;;4928240;29;20094;-75
2023/06/14 05:21:33;;;;;;;8.48;3.85;;;19.60;77.40;;;;;;4929717;29;20043;-75
2023/06/14 05:23:59;;;;;;;5.45;3.67;;;19.80;75.60;;;;;;4913912;29;20521;-75
2023/06/14 05:26:28;;;;;;;6.50;3.50;;;19.80;74.30;;;;;;4925669;29;20039;-76
2023/06/14 05:28:57;;;;;;;7.60;3.88;;;20.00;73.40;;;;;;4910579;29;20490;-75
2023/06/14 05:31:25;;;;;;;7.38;3.63;;;20.00;72.10;;;;;;4919338;29;20039;-75
2023/06/14 05:33:51;;;;;;;6.53;3.60;;;20.10;72.20;;;;;;4917065;29;20090;-76
2023/06/14 05:36:17;;;;;;;7.28;3.17;;;20.20;71.10;;;;;;4929605;29;20150;-76
2023/06/14 05:38:42;;;;;;;3.97;3.55;;;20.20;71.10;;;;;;4928280;29;20050;-76
2023/06/14 05:41:08;;;;;;;4.82;3.60;;;20.30;70.90;;;;;;4926669;29;20097;-75
2023/06/14 05:43:34;;;;;;;5.00;3.40;;;20.60;68.80;;;;;;4937905;29;20043;-75
2023/06/14 05:45:59;;;;;;;4.55;3.58;;;20.60;68.60;;;;;;4930161;29;20459;-76
2023/06/14 05:48:25;;;;;;;6.00;3.88;;;20.70;68.40;;;;;;4910967;29;20047;-75
2023/06/14 05:50:51;;;;;;;6.00;3.80;;;20.90;67.60;;;;;;4933979;29;20114;-76
2023/06/14 05:53:16;;;;;;;5.75;3.50;;;21.10;66.90;;;;;;4928882;29;20471;-76
2023/06/14 05:55:42;;;;;;;5.75;3.45;;;21.10;66.40;;;;;;4911306;29;20039;-75
2023/06/14 05:58:08;;;;;;;6.00;3.60;;;21.20;66.40;;;;;;4911464;29;20039;-76
2023/06/14 06:00:33;;;;;;;5.53;3.38;;;21.40;65.00;;;;;;4929213;29;20074;-75
2023/06/14 06:02:59;;;;;;;4.60;3.60;;;21.20;65.10;;;;;;4919198;29;20044;-75
2023/06/14 06:05:24;;;;;;;4.88;3.25;;;20.70;66.30;;;;;;4901339;29;20122;-75
2023/06/14 06:07:50;;;;;;;5.15;3.67;;;20.10;67.80;;;;;;4928479;29;20082;-76
2023/06/14 06:10:16;;;;;;;4.70;3.38;;;19.70;69.80;;;;;;4929027;29;20486;-75
2023/06/14 06:12:42;;;;;;;6.78;3.25;;;19.30;70.90;;;;;;4935497;29;20039;-75
2023/06/14 06:15:11;;;;;;;5.20;3.47;;;19.10;72.60;;;;;;4910972;29;20159;-75
2023/06/14 06:17:37;;;;;;;5.30;3.15;;;19.00;74.40;;;;;;4925719;29;20083;-75
2023/06/14 06:20:05;;;;;;;5.25;3.47;;;18.80;76.30;;;;;;4918066;29;20046;-76
2023/06/14 06:22:31;;;;;;;5.28;3.75;;;18.80;79.90;;;;;;4912531;29;20060;-76
2023/06/14 06:24:56;;;;;;;4.97;3.28;;;18.90;78.00;;;;;;4916477;29;20035;-76
2023/06/14 06:27:22;;;;;;;8.10;3.60;;;18.70;79.70;;;;;;4924615;29;20099;-76
2023/06/14 06:29:48;;;;;;;5.82;4.22;;;18.70;80.40;;;;;;4908239;29;20114;-75
2023/06/14 06:32:15;;;;;;;4.07;3.20;;;18.70;81.90;;;;;;4925548;29;20044;-75
2023/06/14 06:34:40;;;;;;;3.80;3.05;;;18.80;80.70;;;;;;4900074;29;20052;-75
2023/06/14 06:37:07;;;;;;;4.63;3.00;;;18.80;81.80;;;;;;4921356;29;20052;-74
2023/06/14 06:39:33;;;;;;;4.63;3.63;;;19.00;78.50;;;;;;4926273;29;20319;-75
2023/06/14 06:41:58;;;;;;;4.93;3.20;;;19.00;78.40;;;;;;4918942;29;20565;-74
2023/06/14 06:44:24;;;;;;;5.68;3.38;;;19.10;76.60;;;;;;4913012;29;20043;-76
2023/06/14 06:46:49;;;;;;;5.40;3.72;;;19.10;74.60;;;;;;4918808;29;20045;-75
2023/06/14 06:49:15;;;;;;;4.90;3.28;;;19.10;76.50;;;;;;4921841;29;20081;-74
2023/06/14 06:51:58;;;;;;;4.93;3.30;;;19.10;77.90;;;;;;4919858;28;20043;-75
2023/06/14 06:54:24;;;;;;;;;;;19.20;77.80;;;;;;4900889;29;20051;-75
2023/06/14 06:56:49;;;;;;;3.42;3.00;;;19.30;74.30;;;;;;4922939;29;19919;-74
2023/06/14 06:59:16;;;;;;;4.07;2.85;;;19.40;73.10;;;;;;4919092;29;20078;-75
2023/06/14 07:01:42;;;;;;;4.10;2.90;;;19.50;73.50;;;;;;4914912;29;20095;-75
2023/06/14 07:04:07;;;;;;;6.65;2.90;;;19.50;72.40;;;;;;4924838;29;20047;-74
2023/06/14 07:06:33;;;;;;;7.03;2.95;;;19.60;73.60;;;;;;4917818;29;20027;-75
2023/06/14 07:09:01;;;;;;;6.03;2.80;;;19.70;73.70;;;;;;4922460;29;20039;-74
2023/06/14 07:11:27;;;;;;;5.10;2.75;;;19.80;71.20;;;;;;4925712;29;20126;-75
2023/06/14 07:13:52;;;;;;;4.97;2.60;;;20.00;70.10;;;;;;4915493;29;20040;-75
2023/06/14 07:16:18;;;;;;;4.13;2.58;;;20.10;70.20;;;;;;4918769;29;20039;-75
2023/06/14 07:18:44;;;;;;;4.10;2.55;;;20.00;69.30;;;;;;4910470;28;20070;-76
2023/06/14 07:21:09;;;;;;;5.47;2.78;;;20.20;70.40;;;;;;4929141;29;20104;-76
2023/06/14 07:23:35;;;;;;;3.83;2.50;;;20.30;68.40;;;;;;4931367;29;20046;-75
2023/06/14 07:26:01;;;;;;;4.13;2.70;;;20.40;68.60;;;;;;4916061;29;20047;-76
2023/06/14 07:28:27;;;;;;;6.05;2.70;;;20.50;67.80;;;;;;4921771;29;20563;-76
2023/06/14 07:30:52;;;;;;;4.63;2.70;;;20.60;68.20;;;;;;4926894;29;20027;-75
2023/06/14 07:33:18;;;;;;;5.07;2.92;;;20.70;67.80;;;;;;4929476;29;20103;-75
2023/06/14 07:35:43;;;;;;;4.45;2.70;;;20.90;64.60;;;;;;4927992;29;20473;-75
2023/06/14 07:38:09;;;;;;;3.88;2.67;;;21.00;64.40;;;;;;4932819;29;20402;-75
2023/06/14 07:40:34;;;;;;;5.47;2.47;;;21.10;64.00;;;;;;4936380;29;20051;-75
2023/06/14 07:43:02;;;;;;;4.25;2.88;;;21.30;63.10;;;;;;4936227;29;20050;-76
2023/06/14 07:45:27;;;;;;;4.97;2.75;;;21.40;62.80;;;;;;4935359;29;20046;-75
2023/06/14 07:47:53;;;;;;;6.78;2.80;;;21.80;62.00;;;;;;4907827;29;20040;-75
2023/06/14 07:50:18;;;;;;;4.88;2.85;;;22.30;61.20;;;;;;4922890;29;20039;-75
2023/06/14 07:52:45;;;;;;;4.68;2.85;;;22.80;60.10;;;;;;4929116;29;20028;-75
2023/06/14 07:55:10;;;;;;;5.18;2.50;;;23.20;57.50;;;;;;4928975;29;20039;-75
2023/06/14 07:57:36;;;;;;;5.18;2.60;;;23.50;57.40;;;;;;4921885;29;20370;-75
2023/06/14 08:00:06;;;;;;;4.70;2.58;;;23.70;56.10;;;;;;4929589;29;20053;-75
2023/06/14 08:02:31;;;;;;;4.18;2.55;;;23.90;55.50;;;;;;4928167;29;20067;-75
2023/06/14 08:04:57;;;;;;;3.88;2.50;;;24.20;56.70;;;;;;4918752;29;20130;-77
2023/06/14 08:07:22;;;;;;;4.70;2.50;;;24.90;53.20;;;;;;4905565;29;20165;-77
2023/06/14 08:09:48;;;;;;;3.53;2.20;;;24.90;52.90;;;;;;4930848;29;20040;-77
2023/06/14 08:12:13;;;;;;;4.32;2.47;;;24.90;53.20;;;;;;4917647;29;20044;-79
2023/06/14 08:14:42;;;;;;;2.92;2.30;;;25.20;52.10;;;;;;4921837;29;20557;-78
2023/06/14 08:17:07;;;;;;;5.85;2.30;;;25.20;52.90;;;;;;4938174;29;20524;-78
2023/06/14 08:19:33;;;;;;;4.03;2.10;;;25.50;50.40;;;;;;4902781;29;20039;-78
2023/06/14 08:21:59;;;;;;;5.68;1.98;;;25.40;49.70;;;;;;4932102;29;20409;-77
2023/06/14 08:24:26;;;;;;;2.58;2.10;;;25.30;49.60;;;;;;4919325;29;20474;-76
2023/06/14 08:26:56;;;;;;;4.38;2.10;;;25.30;48.30;;;;;;4925229;29;20459;-75
2023/06/14 08:29:22;;;;;;;5.03;2.53;;;25.00;49.10;;;;;;4909075;29;20111;-75
2023/06/14 08:31:48;;;;;;;3.40;2.35;;;25.10;50.70;;;;;;4920846;29;20036;-75
2023/06/14 08:34:13;;;;;;;2.25;1.95;;;25.50;50.00;;;;;;4919566;29;20046;-75
2023/06/14 08:36:39;;;;;;;4.60;2.58;;;25.90;48.20;;;;;;4919430;29;20039;-74
2023/06/14 08:39:05;;;;;;;4.68;2.22;;;25.80;50.00;;;;;;4895949;29;20047;-75
2023/06/14 08:41:32;;;;;;;3.17;2.05;;;26.00;49.10;;;;;;4907924;29;20044;-75
2023/06/14 08:43:58;;;;;;;6.22;2.17;;;26.00;48.20;;;;;;4924311;29;20525;-75
2023/06/14 08:46:27;;;;;;;4.22;2.17;;;26.00;48.40;;;;;;4919462;29;20067;-75
2023/06/14 08:48:56;;;;;;;2.97;2.03;;;26.00;48.90;;;;;;4919431;29;20047;-75
2023/06/14 08:51:23;;;;;;;5.57;2.88;;;25.90;50.60;;;;;;4915214;29;20043;-74
2023/06/14 08:53:57;;;;;;;3.67;2.13;;;26.40;49.00;;;;;;4901867;29;20044;-75
2023/06/14 08:56:27;;;;;;;4.05;2.15;;;26.50;47.80;;;;;;4900105;29;20508;-75
2023/06/14 08:58:53;;;;;;;2.22;2.00;;;26.20;49.30;;;;;;4900281;29;20075;-75
2023/06/14 09:01:19;;;;;;;3.45;2.08;;;26.40;48.20;;;;;;4900454;29;20434;-75
2023/06/14 09:03:45;;;;;;;3.65;1.80;;;26.40;48.20;;;;;;4898982;29;20048;-75
2023/06/14 09:06:13;;;;;;;4.82;1.85;;;26.50;48.50;;;;;;4907365;29;20111;-75
2023/06/14 09:08:48;;;;;;;2.78;1.85;;;26.90;47.90;;;;;;4896881;29;20049;-75
2023/06/14 09:11:15;;;;;;;4.93;2.10;;;27.30;46.60;;;;;;4907611;29;20052;-75
2023/06/14 09:13:41;;;;;;;2.97;2.10;;;27.30;46.90;;;;;;4915580;29;20413;-74
2023/06/14 09:16:08;;;;;;;4.47;2.20;;;27.50;45.10;;;;;;4915495;29;20044;-75
2023/06/14 09:18:39;;;;;;;3.22;2.13;;;27.40;46.10;;;;;;4913687;29;20134;-75
2023/06/14 09:21:09;;;;;;;2.75;1.85;;;27.50;45.50;;;;;;4907650;29;20067;-75
2023/06/14 09:23:45;;;;;;;1.98;1.77;;;27.10;46.10;;;;;;4895358;29;20130;-75
2023/06/14 09:26:15;;;;;;;4.70;2.10;;;27.00;47.60;;;;;;4887477;29;20032;-75
2023/06/14 09:28:44;;;;;;;3.00;2.10;;;27.50;45.30;;;;;;4901198;29;20047;-75
2023/06/14 09:31:17;;;;;;;2.53;1.90;;;27.00;45.50;;;;;;4915764;29;20534;-75
2023/06/14 09:33:47;;;;;;;;;;;26.90;46.10;;;;;;4900115;29;20048;-74
2023/06/14 09:36:22;;;;;;;3.25;2.10;;;26.80;46.10;;;;;;4897024;29;19942;-75
2023/06/14 09:38:55;;;;;;;2.40;2.10;;;26.60;46.40;;;;;;4905863;29;20047;-75
2023/06/14 09:41:30;;;;;;;3.83;1.90;;;26.60;46.30;;;;;;4899352;29;20135;-75
2023/06/14 09:44:00;;;;;;;2.65;1.80;;;26.50;47.40;;;;;;4898646;29;20048;-75
2023/06/14 09:46:27;;;;;;;3.03;1.75;;;26.70;45.40;;;;;;4897870;29;20044;-75
2023/06/14 09:48:53;;;;;;;3.88;1.90;;;26.70;45.40;;;;;;4892374;29;20080;-77
2023/06/14 09:51:20;;;;;;;2.97;1.90;;;26.70;45.30;;;;;;4895163;29;20467;-74
2023/06/14 09:53:48;;;;;;;3.75;1.67;;;26.60;45.00;;;;;;4918443;29;20122;-75
2023/06/14 09:56:20;;;;;;;2.70;1.67;;;26.50;45.30;;;;;;4923639;29;20048;-76
2023/06/14 09:58:47;;;;;;;5.05;1.95;;;26.60;45.60;;;;;;4913780;29;20051;-76
2023/06/14 10:01:13;;;;;;;4.40;1.90;;;26.60;45.40;;;;;;4925018;29;20047;-77
2023/06/14 10:03:40;;;;;;;3.00;1.83;;;26.70;45.90;;;;;;4918025;29;20042;-76
2023/06/14 10:06:08;;;;;;;2.53;1.35;;;27.00;44.50;;;;;;4930317;29;20039;-76
2023/06/14 10:08:36;;;;;;;4.28;1.45;;;27.00;44.20;;;;;;4928635;29;20067;-76
2023/06/14 10:11:02;;;;;;;3.45;1.50;;;26.80;44.50;;;;;;4937270;29;20091;-77
2023/06/14 10:13:30;;;;;;;2.97;1.55;;;26.90;43.80;;;;;;4927002;29;20103;-77
2023/06/14 10:16:19;;;;;;;2.13;1.45;;;26.60;43.90;;;;;;4924320;29;20047;-76
2023/06/14 10:19:07;;;;;;;3.05;1.60;;;26.40;45.10;;;;;;4916800;29;20571;-77
2023/06/14 10:22:02;;;;;;;3.17;1.73;;;26.50;44.90;;;;;;4921251;29;20122;-76
2023/06/14 10:24:35;;;;;;;2.50;1.45;;;26.50;44.70;;;;;;4919297;28;20044;-76
2023/06/14 10:27:00;;;;;;;1.70;1.40;;;26.40;44.80;;;;;;4924206;29;20065;-77
2023/06/14 10:29:31;;;;;;;3.03;1.40;;;26.40;45.40;;;;;;4917749;29;20482;-77
2023/06/14 10:31:58;;;;;;;4.97;1.65;;;26.60;44.50;;;;;;4913096;29;20075;-76
2023/06/14 10:34:26;;;;;;;3.75;1.50;;;27.00;43.90;;;;;;4910681;29;20054;-77
2023/06/14 10:37:06;;;;;;;1.83;1.50;;;26.90;44.10;;;;;;4924177;29;20565;-75
2023/06/14 10:39:45;;;;;;;3.95;1.60;;;26.90;44.10;;;;;;4913706;29;20474;-76
2023/06/14 10:42:11;;;;;;;3.08;1.50;;;26.90;44.10;;;;;;4905217;29;20050;-76
2023/06/14 10:44:37;;;;;;;3.85;1.55;;;27.00;42.80;;;;;;4917481;29;20039;-76
2023/06/14 10:47:07;;;;;;;3.15;1.42;;;26.70;43.90;;;;;;4909560;29;20099;-76
2023/06/14 10:49:41;;;;;;;3.78;1.60;;;26.90;42.60;;;;;;4909061;29;20040;-75
2023/06/14 10:56:48;;;;;;;2.95;1.38;;;26.50;43.20;;;;;;4864669;29;20045;-78
2023/06/14 11:00:42;;;;;;;;;;;;;;;;;;;;;
2023/06/14 11:11:14;;;;;;;4.25;1.50;;;27.40;42.30;;;;;;4876406;29;20052;-79
2023/06/14 11:14:16;;;;;;;3.35;1.40;;;27.40;42.00;;;;;;5000863;23;20048;-80
2023/06/14 11:17:08;;;;;;;3.83;1.80;;;27.50;41.60;;;;;;4896023;29;20048;-79
2023/06/14 11:20:39;;;;;;;;;;;;;;;;;;;;;
2023/06/14 11:23:10;;;;;;;2.83;1.70;;;27.20;42.70;;;;;;4916567;23;20052;-79
2023/06/14 11:29:17;;;;;;;4.55;1.90;;;27.00;42.60;;;;;;4879755;29;20152;-79
2023/06/14 11:32:30;;;;;;;4.35;1.73;;;27.50;41.80;;;;;;4874101;29;20101;-80
2023/06/14 11:35:19;;;;;;;2.88;1.88;;;27.40;42.60;;;;;;4778281;30;20522;-79
2023/06/14 11:38:28;;;;;;;3.03;1.80;;;27.40;40.70;;;;;;4805556;29;20055;-79
2023/06/14 11:41:07;;;;;;;4.15;2.00;;;27.10;41.80;;;;;;4857978;29;20422;-77
2023/06/14 11:43:36;;;;;;;5.75;1.90;;;26.90;42.40;;;;;;4969974;23;20139;-76
2023/06/14 11:46:01;;;;;;;2.42;1.48;;;26.90;42.70;;;;;;4923699;28;20118;-76
2023/06/14 11:48:45;;;;;;;3.53;1.90;;;26.80;43.40;;;;;;4924171;29;20474;-76
2023/06/14 11:51:51;;;;;;;2.92;1.80;;;26.80;42.50;;;;;;4919553;29;20542;-78
2023/06/14 11:54:28;;;;;;;2.50;1.38;;;27.00;42.60;;;;;;4912969;29;20074;-77
2023/06/14 11:57:20;;;;;;;2.80;1.58;;;27.00;43.30;;;;;;4904965;29;20056;-77
2023/06/14 11:59:54;;;;;;;2.35;1.88;;;27.20;43.60;;;;;;4899025;29;20048;-76
2023/06/14 12:03:15;;;;;;;4.72;1.70;;;27.60;42.30;;;;;;4902973;29;20091;-79
2023/06/14 12:06:24;;;;;;;4.80;1.90;;;27.40;42.00;;;;;;4903601;29;20052;-76
2023/06/14 12:09:19;;;;;;;3.78;1.73;;;27.10;43.00;;;;;;4824589;29;20470;-77
2023/06/14 12:12:04;;;;;;;2.90;1.83;;;27.40;42.90;;;;;;4892852;29;20052;-76
2023/06/14 12:14:49;;;;;;;3.03;1.50;;;27.40;42.80;;;;;;4896692;29;20479;-77
2023/06/14 12:17:36;;;;;;;4.30;2.03;;;27.30;44.10;;;;;;4889106;29;20050;-76
2023/06/14 12:20:16;;;;;;;3.17;1.83;;;27.50;43.80;;;;;;4905414;29;20446;-76
2023/06/14 12:23:07;;;;;;;2.85;1.50;;;27.50;42.80;;;;;;4905234;29;20454;-77
2023/06/14 12:26:05;;;;;;;2.45;1.98;;;27.40;43.40;;;;;;4887067;29;20551;-76
2023/06/14 12:29:18;;;;;;;3.63;1.77;;;27.20;43.40;;;;;;4846999;29;20044;-77
2023/06/14 12:31:49;;;;;;;2.53;1.73;;;27.30;43.50;;;;;;4885031;29;20195;-76
2023/06/14 12:34:26;;;;;;;3.40;1.60;;;27.20;44.80;;;;;;4917307;29;20036;-76
2023/06/14 12:37:04;;;;;;;2.17;1.70;;;27.50;44.40;;;;;;4873269;29;20068;-76
2023/06/14 12:39:55;;;;;;;2.78;1.77;;;27.70;43.70;;;;;;4889376;29;20067;-77
2023/06/14 12:42:28;;;;;;;2.88;2.00;;;27.80;43.70;;;;;;4897051;29;20048;-76
2023/06/14 12:45:12;;;;;;;6.80;1.90;;;28.00;43.80;;;;;;4912967;29;20036;-77
2023/06/14 12:47:40;;;;;;;;;;;28.10;44.50;;;;;;4900633;29;20040;-77
2023/06/14 12:50:09;;;;;;;4.22;1.88;;;28.50;43.10;;;;;;4898364;29;20440;-78
2023/06/14 12:53:04;;;;;;;2.95;1.80;;;28.50;42.80;;;;;;4887377;29;20036;-77
2023/06/14 12:55:35;;;;;;;3.08;1.88;;;28.50;42.20;;;;;;4912881;29;20055;-76
2023/06/14 12:58:01;;;;;;;2.45;2.00;;;28.30;43.60;;;;;;4908712;29;20055;-76
2023/06/14 13:00:27;;;;;;;3.70;1.85;;;28.60;43.50;;;;;;4888400;29;20509;-76
2023/06/14 13:03:00;;;;;;;2.20;1.70;;;28.90;44.00;;;;;;4903656;29;20046;-76
2023/06/14 13:05:33;;;;;;;2.65;1.60;;;29.20;42.50;;;;;;4895987;29;20503;-77
2023/06/14 13:08:00;;;;;;;2.20;1.85;;;29.00;43.30;;;;;;4908364;29;20446;-76
2023/06/14 13:10:28;;;;;;;1.80;1.63;;;29.00;42.60;;;;;;4929760;29;20494;-76
2023/06/14 13:13:08;;;;;;;;;;;;;;;;;;;;;
2023/06/14 13:15:40;;;;;;;3.88;1.80;;;28.40;43.70;;;;;;4915535;29;20040;-78
2023/06/14 13:18:15;;;;;;;3.33;1.63;;;28.70;42.80;;;;;;4900919;29;20563;-77
2023/06/14 13:20:53;;;;;;;1.95;1.50;;;29.10;42.90;;;;;;4902621;29;20043;-77
2023/06/14 13:23:21;;;;;;;2.08;1.50;;;29.50;41.50;;;;;;4883119;29;20415;-77
2023/06/14 13:25:53;;;;;;;4.60;1.55;;;29.30;40.60;;;;;;4917982;29;20044;-77
2023/06/14 13:28:20;;;;;;;2.25;1.65;;;28.90;42.00;;;;;;4926028;29;20048;-77
2023/06/14 13:30:46;;;;;;;2.67;1.73;;;28.90;42.60;;;;;;4907594;29;20044;-77
2023/06/14 13:33:16;;;;;;;3.75;2.00;;;28.90;42.00;;;;;;4901198;29;20594;-76
2023/06/14 13:35:57;;;;;;;4.45;2.00;;;28.50;42.00;;;;;;4899407;29;20048;-76
2023/06/14 13:38:28;;;;;;;3.65;1.88;;;28.40;43.50;;;;;;4902778;29;20044;-77
2023/06/14 13:41:04;;;;;;;3.25;1.70;;;28.60;43.20;;;;;;4920128;29;20047;-76
2023/06/14 13:43:33;;;;;;;3.15;1.70;;;28.80;41.40;;;;;;4907341;29;20056;-77
2023/06/14 13:46:16;;;;;;;4.07;2.00;;;28.60;42.50;;;;;;4899380;29;20127;-76
2023/06/14 13:48:46;;;;;;;4.35;1.73;;;28.70;43.00;;;;;;4903453;29;20047;-76
2023/06/14 13:51:18;;;;;;;4.00;1.75;;;28.90;42.30;;;;;;4917511;29;20055;-76
2023/06/14 13:53:54;;;;;;;2.30;1.67;;;28.90;43.50;;;;;;4927332;29;20086;-77
2023/06/14 13:56:24;;;;;;;1.98;1.55;;;29.00;42.10;;;;;;4917625;29;20131;-77
2023/06/14 13:59:10;;;;;;;2.67;1.60;;;28.60;42.20;;;;;;4889006;29;20032;-77
2023/06/14 14:01:36;;;;;;;5.10;1.52;;;28.30;42.80;;;;;;4891525;29;20102;-79
2023/06/14 14:04:07;;;;;;;2.97;1.63;;;28.40;43.40;;;;;;4927856;29;20080;-78
2023/06/14 14:06:32;;;;;;;2.08;1.52;;;28.60;42.80;;;;;;4901599;29;20511;-79
2023/06/14 14:08:58;;;;;;;5.30;1.95;;;28.60;42.90;;;;;;4901189;29;20054;-78
2023/06/14 14:11:24;;;;;;;2.72;1.60;;;28.60;43.50;;;;;;4901333;29;20071;-78
2023/06/14 14:14:01;;;;;;;2.35;1.40;;;28.50;43.20;;;;;;4916463;29;20074;-78
2023/06/14 14:16:32;;;;;;;3.00;1.60;;;28.40;43.00;;;;;;4895897;29;20135;-77
2023/06/14 14:19:00;;;;;;;2.53;1.45;;;28.10;43.40;;;;;;4920434;29;20043;-78
2023/06/14 14:21:25;;;;;;;3.10;1.52;;;28.00;43.60;;;;;;4890832;29;20188;-78
2023/06/14 14:23:55;;;;;;;3.47;1.70;;;27.90;43.50;;;;;;4895847;29;20475;-80
2023/06/14 14:26:37;;;;;;;2.40;1.70;;;27.70;43.80;;;;;;4898721;29;20032;-78
2023/06/14 14:29:11;;;;;;;3.60;1.57;;;27.70;44.30;;;;;;4924895;29;20147;-77
2023/06/14 14:31:48;;;;;;;2.10;1.42;;;27.80;44.70;;;;;;4908821;29;20501;-77
2023/06/14 14:34:24;;;;;;;3.30;1.52;;;27.80;43.30;;;;;;4909505;29;20081;-77
2023/06/14 14:37:10;;;;;;;3.45;1.88;;;27.70;44.20;;;;;;4908229;29;20083;-77
2023/06/14 14:39:37;;;;;;;3.50;1.35;;;27.80;43.60;;;;;;4922261;29;20052;-77
2023/06/14 14:42:03;;;;;;;3.95;1.70;;;28.00;44.10;;;;;;4914612;29;20396;-77
2023/06/14 14:44:37;;;;;;;2.28;1.48;;;28.30;43.10;;;;;;4914211;29;20087;-77
2023/06/14 14:47:08;;;;;;;2.58;1.65;;;28.30;42.70;;;;;;4908565;29;20047;-77
2023/06/14 14:49:39;;;;;;;4.20;1.50;;;28.10;43.80;;;;;;4909944;29;20066;-77
2023/06/14 14:52:13;;;;;;;2.22;1.63;;;27.80;43.70;;;;;;4933529;29;20094;-76
2023/06/14 14:55:05;;;;;;;3.65;1.70;;;27.80;43.80;;;;;;4917119;29;20086;-77
2023/06/14 14:57:36;;;;;;;2.25;1.52;;;27.70;43.40;;;;;;4910669;29;20041;-77
2023/06/14 15:00:11;;;;;;;2.80;1.60;;;27.50;43.50;;;;;;4913786;29;20048;-77
2023/06/14 15:02:45;;;;;;;2.95;1.60;;;27.20;44.40;;;;;;4933369;29;20063;-77
2023/06/14 15:05:11;;;;;;;3.40;1.45;;;27.20;44.80;;;;;;4910422;29;20044;-77
2023/06/14 15:07:39;;;;;;;2.38;1.50;;;27.10;45.70;;;;;;4906412;29;20036;-77
2023/06/14 15:10:07;;;;;;;2.88;1.40;;;27.20;45.30;;;;;;4913822;29;20036;-77
2023/06/14 15:12:36;;;;;;;2.88;1.60;;;27.20;44.60;;;;;;4914182;29;20510;-77
2023/06/14 15:15:13;;;;;;;3.20;1.60;;;27.20;44.80;;;;;;4914079;29;20043;-77
2023/06/14 15:17:47;;;;;;;3.90;1.40;;;27.00;45.20;;;;;;4900202;29;20031;-77
2023/06/14 15:20:21;;;;;;;3.95;1.77;;;26.80;45.20;;;;;;4906799;29;20047;-77
2023/06/14 15:22:55;;;;;;;2.08;1.70;;;26.60;44.90;;;;;;4920787;29;20036;-77
2023/06/14 15:25:29;;;;;;;3.95;1.55;;;26.50;45.20;;;;;;4920752;29;20044;-77
2023/06/14 15:27:56;;;;;;;1.90;1.52;;;26.40;44.20;;;;;;4902714;29;20084;-76
2023/06/14 15:30:25;;;;;;;2.28;1.80;;;26.10;44.90;;;;;;4898114;29;20119;-78
2023/06/14 15:32:50;;;;;;;2.85;1.42;;;25.90;45.70;;;;;;4902349;29;20094;-76
2023/06/14 15:35:20;;;;;;;3.80;1.73;;;25.90;46.50;;;;;;4888240;29;20442;-77
2023/06/14 15:37:49;;;;;;;5.47;2.13;;;26.00;45.90;;;;;;4910134;29;20103;-77
2023/06/14 15:40:16;;;;;;;2.42;1.60;;;25.90;46.20;;;;;;4898395;29;20128;-77
2023/06/14 15:42:44;;;;;;;3.35;1.42;;;25.90;45.30;;;;;;4933109;29;20075;-77
2023/06/14 15:45:18;;;;;;;5.43;1.60;;;25.90;45.80;;;;;;4912439;29;20044;-77
2023/06/14 15:47:47;;;;;;;3.13;1.77;;;25.70;47.20;;;;;;4893669;29;20044;-77
2023/06/14 15:50:15;;;;;;;3.53;1.90;;;25.80;47.10;;;;;;4921060;29;20068;-77
2023/06/14 15:52:46;;;;;;;1.95;1.52;;;25.90;46.50;;;;;;4913599;29;20035;-77
2023/06/14 15:55:15;;;;;;;2.67;1.80;;;25.80;45.70;;;;;;4897240;29;20135;-78
2023/06/14 15:57:55;;;;;;;2.67;2.03;;;25.70;46.70;;;;;;4911675;29;20032;-78
2023/06/14 16:00:52;;;;;;;3.65;2.10;;;25.70;46.40;;;;;;4900023;29;20508;-79
2023/06/14 16:03:21;;;;;;;4.25;1.90;;;25.70;47.20;;;;;;4891725;29;20055;-77
2023/06/14 16:06:25;;;;;;;3.85;1.60;;;25.70;46.60;;;;;;4877659;29;20039;-79
2023/06/14 16:09:23;;;;;;;1.70;1.60;;;25.70;45.80;;;;;;4912948;29;20039;-78
2023/06/14 16:14:33;;;;;;;2.38;1.80;;;25.50;46.00;;;;;;3063599;26;20055;-77
2023/06/14 16:16:59;;;;;;;5.80;2.17;;;25.40;46.40;;;;;;4922448;29;20054;-76
2023/06/14 16:19:24;;;;;;;2.28;2.08;;;25.30;46.90;;;;;;4936567;29;20039;-76
2023/06/14 16:22:10;;;;;;;2.50;1.80;;;25.30;47.30;;;;;;4939857;28;20046;-78
2023/06/14 16:24:44;;;;;;;3.97;2.10;;;25.40;47.40;;;;;;4922150;29;20103;-78
2023/06/14 16:27:10;;;;;;;3.50;2.00;;;25.40;46.90;;;;;;4927076;29;20065;-77
2023/06/14 16:29:57;;;;;;;2.95;1.77;;;25.40;46.60;;;;;;4915525;29;20070;-78
2023/06/14 16:32:33;;;;;;;2.80;1.73;;;25.40;46.50;;;;;;4948826;23;20048;-80
2023/06/14 16:43:27;;;;;;;4.07;1.90;;;25.10;47.80;;;;;;4799810;29;20061;-78
2023/06/14 16:46:47;;;;;;;3.67;2.08;;;24.90;48.50;;;;;;4835958;29;20057;-80
2023/06/14 16:49:27;;;;;;;5.05;2.17;;;24.80;48.40;;;;;;4816064;29;20049;-80
2023/06/14 16:52:06;;;;;;;4.13;2.10;;;24.70;48.90;;;;;;4823265;29;20057;-81
2023/06/14 16:54:48;;;;;;;3.38;2.10;;;24.70;49.40;;;;;;4885165;29;21412;-80
2023/06/14 16:57:40;;;;;;;2.63;1.73;;;24.70;48.00;;;;;;4905963;29;20555;-80
2023/06/14 17:00:41;;;;;;;3.13;2.10;;;24.80;47.20;;;;;;4921908;29;20048;-81
2023/06/14 17:03:19;;;;;;;3.47;2.00;;;24.70;47.10;;;;;;4894722;29;20309;-81
2023/06/14 17:06:00;;;;;;;2.00;1.70;;;24.70;48.20;;;;;;4861620;29;20136;-81
2023/06/14 17:08:38;;;;;;;4.85;2.30;;;24.70;48.50;;;;;;4847510;29;20065;-79
2023/06/14 17:11:24;;;;;;;6.28;2.35;;;24.70;48.80;;;;;;4852315;29;20627;-80
2023/06/14 17:13:51;;;;;;;2.47;2.00;;;24.70;48.00;;;;;;4882290;29;20040;-77
2023/06/14 17:16:17;;;;;;;4.28;2.10;;;24.70;48.50;;;;;;4891422;29;20404;-75
2023/06/14 17:18:43;;;;;;;3.65;2.13;;;24.70;48.80;;;;;;4912678;29;20421;-78
2023/06/14 17:21:16;;;;;;;2.42;2.00;;;24.70;47.80;;;;;;4903464;29;20126;-77
2023/06/14 17:23:42;;;;;;;4.35;2.30;;;24.80;49.10;;;;;;4907139;29;20463;-76
2023/06/14 17:26:07;;;;;;;3.05;2.20;;;24.80;47.10;;;;;;4917642;29;20082;-75
2023/06/14 17:28:35;;;;;;;4.07;2.08;;;24.70;46.70;;;;;;4929252;29;20036;-75
2023/06/14 17:31:01;;;;;;;3.70;2.40;;;24.70;47.10;;;;;;4941736;29;20036;-75
2023/06/14 17:33:26;;;;;;;2.83;2.20;;;24.60;47.20;;;;;;4899601;29;20051;-76
2023/06/14 17:35:59;;;;;;;2.63;2.40;;;24.50;46.80;;;;;;4926899;29;20107;-77
2023/06/14 17:38:27;;;;;;;;;;;24.50;46.80;;;;;;4903514;29;20040;-76
2023/06/14 17:54:52;;;;;;;2.90;2.50;;;24.20;48.10;;;;;;5156536;23;20103;-79
2023/06/14 17:57:24;;;;;;;3.55;2.20;;;24.30;47.80;;;;;;4892602;29;20039;-78
2023/06/14 17:59:50;;;;;;;3.25;2.40;;;24.20;48.30;;;;;;4894734;29;20380;-77
2023/06/14 18:02:18;;;;;;;2.78;2.15;;;24.20;48.60;;;;;;4902560;29;20108;-77
2023/06/14 18:04:44;;;;;;;4.18;2.30;;;24.10;49.30;;;;;;4880698;29;20048;-78
2023/06/14 18:07:10;;;;;;;2.80;2.25;;;24.20;49.50;;;;;;4874685;29;20048;-79
2023/06/14 18:09:36;;;;;;;3.78;2.50;;;24.20;49.30;;;;;;4882329;29;20427;-78
2023/06/14 18:12:14;;;;;;;2.80;2.45;;;24.20;48.90;;;;;;4878624;29;20115;-78
2023/06/14 18:14:51;;;;;;;3.33;2.40;;;24.20;49.30;;;;;;4885196;29;20496;-79
2023/06/14 18:17:40;;;;;;;3.22;2.45;;;24.20;49.20;;;;;;4890363;29;20537;-79
2023/06/14 18:20:17;;;;;;;;;;;;;;;;;;;;;
2023/06/14 18:22:49;;;;;;;3.25;2.70;;;24.10;49.00;;;;;;4899682;29;20060;-79
2023/06/14 18:25:26;;;;;;;4.82;2.40;;;24.10;48.90;;;;;;4881450;29;20047;-79
2023/06/14 18:28:09;;;;;;;4.15;2.60;;;24.10;49.30;;;;;;4875473;29;20064;-79
2023/06/14 18:30:35;;;;;;;2.53;2.15;;;24.00;49.50;;;;;;4895181;29;20116;-80
2023/06/14 18:33:16;;;;;;;4.28;2.53;;;24.00;49.80;;;;;;4894452;29;20057;-79
2023/06/14 18:35:52;;;;;;;4.65;2.38;;;23.90;50.10;;;;;;4904442;29;20047;-79
2023/06/14 18:38:46;;;;;;;;;;;23.80;50.20;;;;;;4894071;29;20055;-78
2023/06/14 18:41:53;;;;;;;;;;;;;;;;;;;;;
2023/06/14 18:44:32;;;;;;;3.78;2.80;;;23.60;50.80;;;;;;4860503;29;20061;-79